Time;durP1;ratioP1;P1;durP2;ratioP2;P2;SDS_P1;SDS_P2;PMS_P1;PMS_P2;Temp;Humidity;BMP_temperature;BMP_pressure;BME280_temperature;BME280_humidity;BME280_pressure;Samples;Min_cycle;Max_cycle;Signal;HPM_P1;HPM_P2
2022/08/23 00:00:46;;;;;;;4.20;2.30;;;19.50;55.00;;;;;;5078995;28;20406;-71
2022/08/23 00:03:31;;;;;;;7.53;2.03;;;19.40;55.50;;;;;;5068973;28;20478;-71
2022/08/23 00:06:18;;;;;;;7.10;2.40;;;19.30;57.10;;;;;;5068743;28;20425;-70
2022/08/23 00:09:05;;;;;;;6.37;2.70;;;19.30;56.20;;;;;;5068549;28;20496;-71
2022/08/23 00:11:53;;;;;;;7.90;2.67;;;19.40;55.90;;;;;;5071372;28;20450;-71
2022/08/23 00:14:44;;;;;;;8.33;2.40;;;19.30;57.20;;;;;;5062084;28;20447;-71
2022/08/23 00:17:30;;;;;;;6.13;2.93;;;19.30;56.80;;;;;;5076903;28;20565;-71
2022/08/23 00:20:18;;;;;;;7.33;1.80;;;19.30;57.10;;;;;;5073312;28;20413;-70
2022/08/23 00:23:04;;;;;;;6.03;2.30;;;19.20;56.60;;;;;;5063028;28;20904;-70
2022/08/23 00:25:50;;;;;;;3.50;2.50;;;19.10;58.10;;;;;;5073733;28;20446;-71
2022/08/23 00:28:36;;;;;;;4.83;2.20;;;19.00;58.10;;;;;;5072695;28;20569;-70
2022/08/23 00:31:23;;;;;;;4.87;2.70;;;18.90;59.70;;;;;;5074658;28;20513;-71
2022/08/23 00:34:08;;;;;;;4.00;2.40;;;18.80;58.90;;;;;;5063984;28;20470;-71
2022/08/23 00:36:54;;;;;;;5.30;2.33;;;18.80;60.20;;;;;;5067442;28;20423;-71
2022/08/23 00:39:41;;;;;;;4.13;2.40;;;18.80;60.60;;;;;;5074174;28;20485;-70
2022/08/23 00:48:54;;;;;;;3.83;2.20;;;18.60;62.60;;;;;;5071063;28;20423;-71
2022/08/23 00:51:47;;;;;;;4.60;2.80;;;18.60;62.30;;;;;;5074811;28;20434;-71
2022/08/23 00:54:34;;;;;;;3.70;2.80;;;18.50;62.70;;;;;;5071825;28;20557;-72
2022/08/23 00:57:21;;;;;;;6.87;2.33;;;18.60;62.60;;;;;;5070648;28;20817;-71
2022/08/23 01:00:10;;;;;;;3.80;2.47;;;18.60;62.80;;;;;;5074951;28;20422;-71
2022/08/23 01:02:56;;;;;;;6.10;2.27;;;18.50;63.70;;;;;;5063808;28;20482;-71
2022/08/23 01:05:49;;;;;;;4.03;2.00;;;18.40;63.90;;;;;;5074017;28;20914;-71
2022/08/23 01:08:37;;;;;;;4.43;1.97;;;18.40;63.60;;;;;;5076531;28;20444;-71
2022/08/23 01:11:30;;;;;;;3.70;2.43;;;18.40;63.60;;;;;;5070480;28;21086;-71
2022/08/23 01:14:19;;;;;;;3.50;2.40;;;18.40;64.00;;;;;;5069912;28;20435;-71
2022/08/23 01:17:09;;;;;;;4.60;2.30;;;18.30;64.30;;;;;;5076511;28;20491;-71
2022/08/23 01:19:59;;;;;;;4.43;2.47;;;18.30;64.80;;;;;;5074354;28;20427;-71
2022/08/23 01:22:52;;;;;;;4.20;2.00;;;18.20;65.70;;;;;;5069119;28;20823;-70
2022/08/23 01:25:40;;;;;;;4.10;2.23;;;18.20;66.00;;;;;;5074013;28;20974;-71
2022/08/23 01:28:25;;;;;;;5.73;2.90;;;18.10;66.00;;;;;;5072040;28;20807;-71
2022/08/23 01:31:13;;;;;;;5.63;3.00;;;18.00;66.90;;;;;;5072810;28;20949;-71
2022/08/23 01:34:03;;;;;;;4.07;2.60;;;18.10;66.50;;;;;;5071107;28;20412;-73
2022/08/23 01:36:49;;;;;;;6.30;2.67;;;18.20;67.00;;;;;;5066921;28;20422;-71
2022/08/23 01:39:36;;;;;;;3.70;2.57;;;18.10;66.70;;;;;;5078637;28;20418;-71
2022/08/23 01:42:23;;;;;;;5.70;2.60;;;18.00;67.60;;;;;;5067144;28;20545;-71
2022/08/23 01:45:10;;;;;;;6.30;2.60;;;18.00;67.80;;;;;;5072907;28;20424;-71
2022/08/23 01:47:56;;;;;;;3.50;2.43;;;17.90;68.10;;;;;;5072421;28;20426;-71
2022/08/23 01:50:42;;;;;;;3.27;2.10;;;17.90;68.20;;;;;;5072075;28;20466;-71
2022/08/23 01:53:27;;;;;;;4.00;2.67;;;17.90;68.30;;;;;;5071956;28;20462;-71
2022/08/23 01:56:14;;;;;;;5.57;2.47;;;17.80;69.80;;;;;;5073573;28;20485;-71
2022/08/23 01:59:01;;;;;;;4.67;2.23;;;17.80;70.30;;;;;;5066731;28;20415;-71
2022/08/23 02:01:47;;;;;;;4.40;2.80;;;17.80;69.80;;;;;;5071084;28;21912;-70
2022/08/23 02:04:33;;;;;;;10.83;3.23;;;17.80;70.00;;;;;;5069817;28;20419;-71
2022/08/23 02:07:19;;;;;;;4.47;2.80;;;17.80;70.20;;;;;;5070449;28;20500;-71
2022/08/23 02:10:07;;;;;;;3.70;2.27;;;17.90;70.00;;;;;;5074874;28;20422;-71
2022/08/23 02:12:53;;;;;;;5.40;2.67;;;17.90;69.90;;;;;;5058561;28;20474;-71
2022/08/23 02:15:42;;;;;;;4.07;2.30;;;17.80;69.70;;;;;;5075761;28;20497;-71
2022/08/23 02:18:29;;;;;;;7.30;2.53;;;17.90;69.30;;;;;;5075264;28;20437;-70
2022/08/23 02:21:15;;;;;;;3.63;2.43;;;17.80;69.80;;;;;;5068206;28;20994;-71
2022/08/23 02:24:06;;;;;;;3.90;2.23;;;17.80;70.20;;;;;;5073314;28;20447;-71
2022/08/23 02:26:57;;;;;;;5.60;2.80;;;17.80;70.70;;;;;;5064891;28;20423;-73
2022/08/23 02:29:44;;;;;;;3.47;2.30;;;17.80;71.00;;;;;;5073297;28;20430;-71
2022/08/23 02:32:31;;;;;;;5.60;2.10;;;17.70;71.00;;;;;;5066797;28;20467;-71
2022/08/23 02:35:17;;;;;;;5.50;2.70;;;17.70;70.90;;;;;;5072779;28;20425;-71
2022/08/23 02:38:04;;;;;;;3.10;2.30;;;17.60;71.60;;;;;;5073561;28;20636;-70
2022/08/23 02:40:50;;;;;;;3.97;2.40;;;17.60;72.10;;;;;;5066884;28;20441;-71
2022/08/23 02:43:36;;;;;;;3.47;2.70;;;17.70;72.00;;;;;;5066750;28;20857;-71
2022/08/23 02:46:22;;;;;;;7.57;3.03;;;17.60;72.60;;;;;;5071605;28;20569;-70
2022/08/23 02:49:10;;;;;;;4.63;2.60;;;17.60;73.10;;;;;;5069749;28;20446;-71
2022/08/23 02:51:56;;;;;;;4.73;2.50;;;17.60;73.20;;;;;;5070649;28;20466;-71
2022/08/23 02:54:42;;;;;;;4.43;2.47;;;17.70;72.70;;;;;;5075433;28;20513;-71
2022/08/23 02:57:28;;;;;;;3.83;2.70;;;17.70;72.80;;;;;;5073791;28;20793;-71
2022/08/23 03:00:17;;;;;;;8.50;3.23;;;17.80;72.80;;;;;;5075057;28;20470;-71
2022/08/23 03:03:03;;;;;;;4.40;2.70;;;17.70;72.80;;;;;;5072789;28;20465;-71
2022/08/23 03:05:50;;;;;;;5.60;2.73;;;17.60;72.60;;;;;;5082511;28;20435;-71
2022/08/23 03:08:36;;;;;;;3.53;2.40;;;17.70;72.80;;;;;;5071398;28;20497;-71
2022/08/23 03:11:23;;;;;;;3.00;2.30;;;17.80;72.80;;;;;;5073770;28;21050;-70
2022/08/23 03:14:09;;;;;;;4.33;2.50;;;17.70;71.80;;;;;;5080627;28;20433;-71
2022/08/23 03:16:56;;;;;;;5.27;2.80;;;17.70;72.70;;;;;;5071367;28;20504;-71
2022/08/23 03:19:41;;;;;;;4.63;2.50;;;17.60;72.60;;;;;;5073487;28;20427;-71
2022/08/23 03:22:28;;;;;;;2.83;2.17;;;17.60;72.70;;;;;;5067971;28;20540;-71
2022/08/23 03:25:14;;;;;;;7.10;3.50;;;17.50;73.20;;;;;;5073127;28;20497;-71
2022/08/23 03:28:03;;;;;;;4.83;2.70;;;17.40;72.90;;;;;;5069856;28;21014;-71
2022/08/23 03:30:48;;;;;;;5.10;2.60;;;17.40;73.60;;;;;;5073982;28;20447;-71
2022/08/23 03:33:34;;;;;;;4.40;2.53;;;17.30;74.10;;;;;;5078470;28;20979;-71
2022/08/23 03:36:20;;;;;;;4.67;2.70;;;17.20;74.50;;;;;;5075078;28;20461;-71
2022/08/23 03:39:07;;;;;;;4.90;2.80;;;17.20;74.90;;;;;;5077562;28;20423;-71
2022/08/23 03:41:53;;;;;;;7.47;2.63;;;17.20;73.90;;;;;;5069538;28;20607;-70
2022/08/23 03:44:38;;;;;;;9.00;3.30;;;17.10;74.20;;;;;;5076229;28;20539;-70
2022/08/23 03:47:24;;;;;;;4.50;2.27;;;17.20;74.50;;;;;;5073151;28;20415;-71
2022/08/23 03:50:10;;;;;;;6.07;2.43;;;17.20;74.50;;;;;;5070637;28;20435;-71
2022/08/23 03:52:56;;;;;;;4.50;2.40;;;17.10;74.50;;;;;;5079810;28;20528;-74
2022/08/23 03:55:44;;;;;;;5.57;2.77;;;17.10;75.10;;;;;;5072402;28;20536;-71
2022/08/23 03:58:29;;;;;;;7.30;2.83;;;17.10;74.80;;;;;;5080754;28;20836;-71
2022/08/23 04:01:15;;;;;;;3.50;2.70;;;16.90;75.20;;;;;;5061017;28;20467;-71
2022/08/23 04:04:00;;;;;;;4.70;3.17;;;16.80;75.70;;;;;;5073886;28;20431;-70
2022/08/23 04:06:46;;;;;;;7.90;2.87;;;16.80;76.30;;;;;;5081324;28;20430;-71
2022/08/23 04:09:31;;;;;;;4.27;2.77;;;16.70;76.70;;;;;;5076096;28;20824;-70
2022/08/23 04:12:18;;;;;;;6.97;3.10;;;16.60;77.50;;;;;;5067570;28;20442;-71
2022/08/23 04:15:05;;;;;;;4.50;2.93;;;16.50;78.10;;;;;;5080280;28;20430;-71
2022/08/23 04:17:51;;;;;;;6.63;3.07;;;16.40;79.20;;;;;;5072723;28;20460;-71
2022/08/23 04:20:36;;;;;;;3.33;2.40;;;16.50;79.80;;;;;;5066107;28;20458;-71
2022/08/23 04:23:23;;;;;;;4.03;2.90;;;16.40;80.50;;;;;;5076105;28;21039;-71
2022/08/23 04:26:09;;;;;;;5.67;3.60;;;16.40;80.70;;;;;;5072879;28;20474;-70
2022/08/23 04:28:56;;;;;;;4.90;3.00;;;16.40;81.00;;;;;;5073967;28;20426;-71
2022/08/23 04:31:42;;;;;;;6.70;2.50;;;16.40;81.00;;;;;;5070107;28;20516;-71
2022/08/23 04:34:28;;;;;;;6.87;3.13;;;16.60;80.20;;;;;;5071733;28;20799;-71
2022/08/23 04:37:14;;;;;;;5.43;3.03;;;16.70;79.60;;;;;;5072148;28;20430;-71
2022/08/23 04:43:03;;;;;;;5.53;3.03;;;16.70;79.50;;;;;;5072805;28;20509;-70
2022/08/23 04:45:50;;;;;;;3.67;2.80;;;16.80;79.20;;;;;;5071769;28;20418;-71
2022/08/23 04:48:36;;;;;;;12.43;3.33;;;16.80;79.40;;;;;;5071389;28;20422;-71
2022/08/23 04:51:22;;;;;;;3.83;2.97;;;16.70;79.60;;;;;;5066056;28;20799;-71
2022/08/23 04:54:07;;;;;;;6.67;2.70;;;16.60;79.90;;;;;;5074694;28;20406;-71
2022/08/23 04:56:53;;;;;;;6.23;2.93;;;16.50;81.00;;;;;;5074204;28;20426;-70
2022/08/23 04:59:39;;;;;;;4.40;2.73;;;16.50;81.00;;;;;;5070650;28;20509;-71
2022/08/23 05:02:26;;;;;;;5.27;2.77;;;16.50;81.70;;;;;;5068019;28;20473;-70
2022/08/23 05:05:11;;;;;;;9.93;2.70;;;16.60;81.10;;;;;;5074325;28;20496;-70
2022/08/23 05:07:58;;;;;;;4.20;3.07;;;16.70;81.40;;;;;;5073866;28;20792;-70
2022/08/23 05:10:44;;;;;;;4.20;2.83;;;16.80;82.00;;;;;;5061112;28;20526;-70
2022/08/23 05:13:30;;;;;;;4.30;3.13;;;16.80;82.10;;;;;;5074061;28;20446;-70
2022/08/23 05:16:16;;;;;;;5.57;2.97;;;16.80;81.30;;;;;;5080047;28;20434;-70
2022/08/23 05:19:04;;;;;;;4.50;2.53;;;16.80;81.70;;;;;;5072148;28;20901;-70
2022/08/23 05:21:49;;;;;;;5.03;3.30;;;16.90;81.40;;;;;;5067385;28;20513;-70
2022/08/23 05:24:35;;;;;;;8.17;3.00;;;17.00;81.50;;;;;;5071795;28;20837;-70
2022/08/23 05:27:21;;;;;;;8.20;4.03;;;17.00;81.50;;;;;;5072702;28;20435;-70
2022/08/23 05:30:07;;;;;;;10.97;3.10;;;17.00;81.50;;;;;;5064313;28;20442;-70
2022/08/23 05:32:53;;;;;;;3.60;2.40;;;17.20;81.30;;;;;;5075007;28;20810;-70
2022/08/23 05:35:40;;;;;;;5.30;2.70;;;17.40;81.00;;;;;;5068804;28;20445;-70
2022/08/23 05:38:26;;;;;;;5.00;3.13;;;17.40;80.60;;;;;;5074984;28;20431;-70
2022/08/23 05:41:12;;;;;;;5.57;3.00;;;17.50;80.20;;;;;;5071998;28;20995;-70
2022/08/23 05:43:58;;;;;;;5.83;3.40;;;17.70;78.50;;;;;;5078875;28;20572;-70
2022/08/23 05:46:44;;;;;;;6.80;3.37;;;17.70;78.90;;;;;;5067538;28;20435;-70
2022/08/23 05:49:30;;;;;;;9.63;2.80;;;17.70;79.70;;;;;;5063526;28;20459;-70
2022/08/23 05:52:17;;;;;;;3.60;2.70;;;17.80;80.00;;;;;;5069105;28;20487;-70
2022/08/23 05:55:02;;;;;;;5.10;2.80;;;18.00;79.40;;;;;;5071777;28;20418;-70
2022/08/23 05:57:48;;;;;;;3.73;2.40;;;18.10;79.40;;;;;;5064758;28;20545;-70
2022/08/23 06:00:34;;;;;;;4.10;2.70;;;18.30;78.60;;;;;;5071354;28;20421;-70
2022/08/23 06:03:20;;;;;;;5.70;2.80;;;18.40;78.60;;;;;;5070591;28;20515;-70
2022/08/23 06:06:06;;;;;;;5.33;3.47;;;18.50;78.70;;;;;;5076484;28;20512;-70
2022/08/23 06:08:54;;;;;;;4.13;2.70;;;18.60;78.70;;;;;;5063616;28;20582;-70
2022/08/23 06:11:39;;;;;;;3.00;2.43;;;18.70;78.60;;;;;;5059352;28;20459;-70
2022/08/23 06:14:25;;;;;;;5.93;2.77;;;18.80;78.90;;;;;;5072661;28;20932;-71
2022/08/23 06:17:11;;;;;;;7.73;2.97;;;18.80;79.20;;;;;;5070191;28;21050;-70
2022/08/23 06:19:56;;;;;;;5.47;2.70;;;19.00;79.40;;;;;;5063965;28;20457;-70
2022/08/23 06:22:42;;;;;;;4.40;2.73;;;19.00;79.30;;;;;;5068287;28;20563;-70
2022/08/23 06:25:28;;;;;;;4.03;2.33;;;19.10;78.60;;;;;;5079436;28;20472;-70
2022/08/23 06:28:14;;;;;;;6.37;3.30;;;19.20;79.00;;;;;;5073142;28;20954;-70
2022/08/23 06:30:59;;;;;;;4.60;2.57;;;19.20;78.70;;;;;;5076495;28;20435;-70
2022/08/23 06:33:45;;;;;;;5.30;2.60;;;19.30;78.30;;;;;;5079876;28;20419;-70
2022/08/23 06:36:30;;;;;;;5.37;3.20;;;19.50;78.30;;;;;;5076019;28;20476;-70
2022/08/23 06:39:18;;;;;;;4.90;2.50;;;19.60;78.50;;;;;;5072011;28;20473;-70
2022/08/23 06:42:07;;;;;;;4.33;2.90;;;19.70;79.10;;;;;;5075312;28;20478;-70
2022/08/23 06:44:52;;;;;;;5.77;3.37;;;19.80;78.90;;;;;;5075646;28;20928;-70
2022/08/23 06:47:39;;;;;;;5.43;2.90;;;19.90;78.60;;;;;;5072684;28;20517;-70
2022/08/23 06:50:24;;;;;;;9.10;2.80;;;20.00;77.40;;;;;;5076924;28;20446;-70
2022/08/23 06:53:10;;;;;;;7.03;2.77;;;20.10;77.10;;;;;;5077212;28;20969;-70
2022/08/23 06:55:55;;;;;;;5.00;2.73;;;20.30;76.20;;;;;;5083107;28;20422;-70
2022/08/23 06:58:42;;;;;;;4.23;2.70;;;20.50;75.00;;;;;;5073547;28;20442;-70
2022/08/23 07:01:32;;;;;;;4.27;2.67;;;20.60;75.10;;;;;;5080715;28;20990;-71
2022/08/23 07:04:21;;;;;;;6.53;3.03;;;20.60;76.50;;;;;;5076455;28;20427;-70
2022/08/23 07:07:08;;;;;;;6.33;3.30;;;20.70;76.00;;;;;;5072950;28;20430;-70
2022/08/23 07:09:53;;;;;;;5.20;2.50;;;20.90;75.30;;;;;;5070059;28;20912;-70
2022/08/23 07:12:40;;;;;;;7.93;2.77;;;21.00;73.60;;;;;;5078348;28;20906;-70
2022/08/23 07:15:28;;;;;;;5.97;2.77;;;21.30;70.50;;;;;;5077828;28;20986;-71
2022/08/23 07:18:13;;;;;;;5.10;2.80;;;21.40;67.30;;;;;;5067101;28;20595;-70
2022/08/23 07:21:01;;;;;;;5.93;2.63;;;21.60;66.40;;;;;;5083374;28;20457;-70
2022/08/23 07:23:47;;;;;;;5.97;2.90;;;21.80;65.10;;;;;;5075280;28;20470;-70
2022/08/23 07:26:33;;;;;;;6.07;2.40;;;21.90;61.50;;;;;;5071642;28;20497;-70
2022/08/23 07:29:19;;;;;;;4.33;2.77;;;22.00;57.90;;;;;;5076819;28;20429;-70
2022/08/23 07:32:07;;;;;;;3.97;2.53;;;22.20;60.40;;;;;;5079807;28;20572;-70
2022/08/23 07:34:52;;;;;;;5.97;3.13;;;22.30;58.20;;;;;;5070074;28;20803;-70
2022/08/23 07:37:38;;;;;;;8.27;2.50;;;22.40;55.90;;;;;;5070189;28;20485;-70
2022/08/23 07:40:24;;;;;;;9.10;2.50;;;22.50;56.00;;;;;;5074825;28;20423;-70
2022/08/23 07:43:10;;;;;;;9.50;3.30;;;22.60;55.10;;;;;;5081254;28;20924;-70
2022/08/23 07:45:55;;;;;;;6.10;3.40;;;22.70;56.20;;;;;;5074070;28;20477;-70
2022/08/23 07:48:42;;;;;;;7.53;2.30;;;22.80;49.00;;;;;;5068869;28;20841;-70
2022/08/23 07:51:30;;;;;;;6.40;2.40;;;22.90;46.90;;;;;;5073148;28;20445;-70
2022/08/23 07:54:18;;;;;;;7.87;2.70;;;23.00;43.60;;;;;;5078637;28;20469;-70
2022/08/23 07:57:04;;;;;;;3.30;2.07;;;23.10;43.90;;;;;;5067786;28;20544;-70
2022/08/23 07:59:50;;;;;;;11.13;2.60;;;23.20;44.80;;;;;;5079108;28;20926;-70
2022/08/23 08:02:35;;;;;;;5.53;2.70;;;23.30;42.60;;;;;;5076188;28;20482;-70
2022/08/23 08:05:22;;;;;;;6.80;3.30;;;23.40;40.40;;;;;;5079934;28;20415;-70
2022/08/23 08:08:09;;;;;;;6.70;3.00;;;23.50;42.40;;;;;;5071619;28;20472;-70
2022/08/23 08:10:55;;;;;;;3.50;2.87;;;23.60;38.90;;;;;;5079516;28;20556;-70
2022/08/23 08:13:43;;;;;;;7.23;2.50;;;23.70;39.40;;;;;;5077619;28;20421;-70
2022/08/23 08:16:30;;;;;;;8.83;2.97;;;23.80;38.20;;;;;;5069046;28;20443;-70
2022/08/23 08:19:18;;;;;;;11.33;2.60;;;23.80;39.90;;;;;;5078342;28;20613;-70
2022/08/23 08:22:05;;;;;;;5.23;2.70;;;23.90;39.60;;;;;;5073484;28;20475;-70
2022/08/23 08:24:51;;;;;;;5.10;2.63;;;23.80;39.50;;;;;;5071689;28;20555;-70
2022/08/23 08:27:36;;;;;;;5.30;3.07;;;23.80;38.60;;;;;;5069409;28;20489;-70
2022/08/23 08:30:22;;;;;;;12.00;3.23;;;23.80;41.70;;;;;;5072194;28;20501;-70
2022/08/23 08:33:07;;;;;;;5.47;2.90;;;23.80;39.80;;;;;;5075944;28;20447;-70
2022/08/23 08:35:53;;;;;;;7.10;5.00;;;23.80;40.90;;;;;;5071516;28;20472;-70
2022/08/23 08:38:40;;;;;;;7.90;3.93;;;23.80;43.90;;;;;;5077523;28;20425;-70
2022/08/23 08:41:38;;;;;;;5.10;2.87;;;23.80;40.30;;;;;;5074200;28;20549;-70
2022/08/23 08:44:33;;;;;;;7.43;3.37;;;23.90;41.90;;;;;;5073276;28;20433;-70
2022/08/23 08:47:24;;;;;;;10.90;5.50;;;23.90;43.70;;;;;;5067605;28;20442;-70
2022/08/23 08:50:19;;;;;;;6.23;2.60;;;24.00;41.80;;;;;;5073076;28;20431;-70
2022/08/23 08:53:09;;;;;;;7.97;3.20;;;24.00;40.60;;;;;;5075753;28;20438;-70
2022/08/23 08:56:00;;;;;;;19.67;3.17;;;24.00;41.30;;;;;;5067806;28;20446;-70
2022/08/23 08:58:49;;;;;;;9.80;2.83;;;24.00;41.90;;;;;;5076172;28;20932;-70
2022/08/23 09:01:37;;;;;;;6.70;3.30;;;24.10;40.60;;;;;;5071045;28;21052;-70
2022/08/23 09:04:23;;;;;;;5.20;3.70;;;24.30;41.30;;;;;;5074896;28;20813;-70
2022/08/23 09:07:17;;;;;;;5.30;2.53;;;24.40;42.60;;;;;;5067241;28;20454;-70
2022/08/23 09:10:21;;;;;;;4.53;2.90;;;24.60;41.80;;;;;;5067669;28;21054;-70
2022/08/23 09:13:28;;;;;;;10.10;3.00;;;24.80;41.60;;;;;;5068444;28;20899;-70
2022/08/23 09:16:29;;;;;;;4.00;2.53;;;25.00;41.00;;;;;;5068164;28;20451;-70
2022/08/23 09:19:16;;;;;;;10.30;3.30;;;25.20;38.80;;;;;;5074697;28;20426;-70
2022/08/23 09:22:05;;;;;;;8.23;3.20;;;25.30;35.80;;;;;;5072027;28;20946;-70
2022/08/23 09:24:51;;;;;;;8.93;3.17;;;25.40;33.30;;;;;;5072627;28;20449;-70
2022/08/23 09:27:37;;;;;;;4.17;2.40;;;25.50;34.10;;;;;;5071402;28;20461;-70
2022/08/23 09:30:46;;;;;;;4.57;3.00;;;25.60;35.00;;;;;;5073495;28;20430;-70
2022/08/23 09:33:39;;;;;;;4.97;2.60;;;25.70;33.90;;;;;;5075375;28;20454;-70
2022/08/23 09:36:27;;;;;;;6.03;3.07;;;25.80;34.60;;;;;;5066997;28;20461;-70
2022/08/23 09:39:27;;;;;;;7.20;3.10;;;25.90;34.20;;;;;;5074199;28;20489;-70
2022/08/23 09:42:27;;;;;;;8.00;3.27;;;26.10;33.10;;;;;;5078182;28;20553;-70
2022/08/23 09:45:29;;;;;;;3.20;2.43;;;26.30;31.60;;;;;;5065030;28;20822;-70
2022/08/23 09:48:33;;;;;;;7.43;3.03;;;26.40;31.70;;;;;;5072967;28;20433;-70
2022/08/23 09:51:24;;;;;;;8.70;3.33;;;26.50;31.10;;;;;;5070788;28;20430;-70
2022/08/23 09:54:18;;;;;;;4.60;2.63;;;26.60;31.80;;;;;;5074040;28;20508;-71
2022/08/23 09:57:08;;;;;;;7.53;3.93;;;26.70;29.90;;;;;;5070691;28;20468;-70
2022/08/23 09:59:56;;;;;;;8.97;3.27;;;26.80;29.30;;;;;;5076311;28;20431;-70
2022/08/23 10:02:44;;;;;;;5.30;3.40;;;26.80;29.30;;;;;;5069419;28;20884;-70
2022/08/23 10:05:36;;;;;;;6.63;3.30;;;26.90;29.80;;;;;;5067726;28;20525;-71
2022/08/23 10:08:27;;;;;;;7.93;3.10;;;27.00;28.30;;;;;;5074959;28;20425;-70
2022/08/23 10:11:18;;;;;;;7.30;3.10;;;27.10;28.30;;;;;;5067758;28;20993;-70
2022/08/23 10:14:04;;;;;;;5.97;2.53;;;27.20;28.60;;;;;;5072786;28;20419;-70
2022/08/23 10:17:00;;;;;;;10.30;2.70;;;27.30;27.80;;;;;;5070136;28;20430;-70
2022/08/23 10:19:54;;;;;;;7.43;3.50;;;27.50;28.60;;;;;;5072421;28;20417;-70
2022/08/23 10:22:45;;;;;;;4.57;2.80;;;27.60;28.40;;;;;;5071849;28;20544;-70
2022/08/23 10:25:35;;;;;;;4.57;2.90;;;27.70;27.40;;;;;;5063222;28;20448;-70
2022/08/23 10:31:47;;;;;;;5.13;3.13;;;27.80;25.00;;;;;;5073507;28;20837;-70
2022/08/23 10:34:47;;;;;;;5.00;2.60;;;28.00;24.70;;;;;;5069248;28;20492;-70
2022/08/23 10:37:46;;;;;;;4.83;2.80;;;28.00;25.20;;;;;;5077707;28;20574;-70
2022/08/23 10:40:40;;;;;;;6.20;3.10;;;28.10;24.40;;;;;;5072255;28;20450;-70
2022/08/23 10:43:34;;;;;;;6.43;3.93;;;28.20;24.90;;;;;;5063417;28;20882;-70
2022/08/23 10:46:22;;;;;;;7.20;3.40;;;28.30;23.40;;;;;;5072859;28;20435;-70
2022/08/23 10:49:12;;;;;;;5.00;3.00;;;28.40;23.40;;;;;;5076375;28;20781;-70
2022/08/23 10:51:59;;;;;;;6.13;2.83;;;28.40;24.10;;;;;;5070182;28;20443;-70
2022/08/23 10:54:59;;;;;;;5.83;2.90;;;28.50;24.80;;;;;;5065792;28;20474;-71
2022/08/23 10:57:47;;;;;;;10.90;3.10;;;28.60;23.80;;;;;;5069023;28;20422;-70
2022/08/23 11:00:35;;;;;;;9.20;3.23;;;28.80;24.20;;;;;;5075287;28;20430;-71
2022/08/23 11:03:27;;;;;;;4.83;2.83;;;28.80;23.60;;;;;;5060623;22;20992;-76
2022/08/23 11:06:43;;;;;;;4.73;2.90;;;29.00;23.60;;;;;;5031839;28;20475;-75
2022/08/23 11:09:49;;;;;;;5.83;3.00;;;29.00;23.10;;;;;;5040366;28;20850;-76
2022/08/23 11:12:51;;;;;;;5.87;3.40;;;29.10;21.90;;;;;;5038421;28;20456;-75
2022/08/23 11:15:43;;;;;;;4.80;2.90;;;29.20;21.70;;;;;;5030541;28;20805;-76
2022/08/23 11:18:47;;;;;;;5.03;3.33;;;29.20;21.60;;;;;;5038648;28;20451;-75
2022/08/23 11:21:46;;;;;;;5.10;2.87;;;29.30;22.10;;;;;;5038627;28;20486;-75
2022/08/23 11:24:50;;;;;;;7.00;3.37;;;29.50;21.90;;;;;;5031161;28;21009;-76
2022/08/23 11:27:39;;;;;;;10.33;3.17;;;29.30;21.70;;;;;;5038938;28;20455;-75
2022/08/23 11:30:48;;;;;;;5.00;2.70;;;29.20;21.60;;;;;;5038458;28;20436;-75
2022/08/23 11:33:36;;;;;;;5.53;3.03;;;29.20;21.60;;;;;;5039101;28;20542;-75
2022/08/23 11:36:24;;;;;;;3.43;2.80;;;29.20;21.70;;;;;;5034201;28;20431;-75
2022/08/23 11:39:13;;;;;;;7.13;2.87;;;29.30;21.70;;;;;;5041560;28;20483;-76
2022/08/23 11:42:07;;;;;;;9.73;3.23;;;29.50;21.80;;;;;;5039358;28;20454;-75
2022/08/23 11:44:54;;;;;;;6.87;3.20;;;29.60;21.90;;;;;;5030755;28;20497;-76
2022/08/23 11:47:43;;;;;;;3.80;3.30;;;29.70;22.00;;;;;;5038080;28;20793;-75
2022/08/23 11:50:38;;;;;;;5.70;2.70;;;29.90;21.10;;;;;;5034969;28;20917;-75
2022/08/23 11:53:39;;;;;;;6.43;2.63;;;30.00;20.00;;;;;;5030699;28;20457;-76
2022/08/23 11:56:40;;;;;;;7.17;3.70;;;30.00;20.90;;;;;;5039750;28;20466;-76
2022/08/23 11:59:40;;;;;;;5.67;2.80;;;30.00;19.90;;;;;;5044590;28;20448;-76
2022/08/23 12:02:51;;;;;;;7.03;2.63;;;30.00;20.60;;;;;;5036940;28;20456;-76
2022/08/23 12:05:57;;;;;;;6.27;2.83;;;30.00;20.40;;;;;;5035659;28;20428;-76
2022/08/23 12:08:52;;;;;;;4.87;2.80;;;30.20;20.70;;;;;;5037388;28;20424;-76
2022/08/23 12:12:10;;;;;;;5.10;2.93;;;30.20;20.00;;;;;;5038104;28;20858;-76
2022/08/23 12:14:58;;;;;;;4.20;2.93;;;30.40;20.60;;;;;;5033377;28;20476;-76
2022/08/23 12:18:14;;;;;;;6.67;2.93;;;30.60;18.90;;;;;;5032574;28;20469;-76
2022/08/23 12:21:02;;;;;;;7.83;3.43;;;30.80;18.30;;;;;;5034641;28;20448;-76
2022/08/23 12:23:51;;;;;;;4.50;2.80;;;30.90;19.10;;;;;;5031787;28;20472;-76
2022/08/23 12:26:46;;;;;;;4.87;2.23;;;31.00;19.50;;;;;;5039734;28;20482;-76
2022/08/23 12:29:42;;;;;;;4.93;2.80;;;31.10;19.60;;;;;;5046978;28;20618;-76
2022/08/23 12:32:36;;;;;;;8.30;2.80;;;31.00;19.00;;;;;;5044660;28;20468;-76
2022/08/23 12:35:39;;;;;;;5.47;2.63;;;30.90;18.10;;;;;;5029352;28;20506;-75
2022/08/23 12:38:35;;;;;;;6.40;3.10;;;30.70;18.60;;;;;;5037632;28;20470;-76
2022/08/23 12:41:23;;;;;;;10.47;2.67;;;30.70;18.50;;;;;;5048098;28;20948;-75
2022/08/23 12:44:10;;;;;;;5.07;2.97;;;30.80;19.30;;;;;;5026842;28;20488;-76
2022/08/23 12:46:56;;;;;;;5.03;3.20;;;31.00;18.60;;;;;;5029825;28;21009;-76
2022/08/23 12:49:53;;;;;;;6.70;3.13;;;31.20;18.00;;;;;;5037069;28;20431;-75
2022/08/23 12:52:40;;;;;;;4.70;2.50;;;31.40;17.10;;;;;;5027405;28;20491;-76
2022/08/23 12:55:31;;;;;;;3.87;2.60;;;31.50;17.70;;;;;;5034733;28;20792;-76
2022/08/23 12:58:27;;;;;;;5.87;3.33;;;31.70;17.10;;;;;;5032668;28;20478;-76
2022/08/23 13:01:20;;;;;;;5.43;2.57;;;31.80;16.20;;;;;;5047246;28;20479;-76
2022/08/23 13:04:09;;;;;;;4.50;2.60;;;32.00;16.90;;;;;;5042154;28;20471;-75
2022/08/23 13:06:58;;;;;;;4.23;2.83;;;32.00;16.70;;;;;;5044557;28;20427;-76
2022/08/23 13:09:46;;;;;;;6.17;3.03;;;31.70;17.00;;;;;;5034690;28;20429;-75
2022/08/23 13:12:31;;;;;;;4.63;2.80;;;31.30;18.10;;;;;;5037770;28;20535;-76
2022/08/23 13:15:42;;;;;;;4.10;2.73;;;30.90;19.10;;;;;;5047698;28;20535;-75
2022/08/23 13:18:32;;;;;;;6.50;2.60;;;30.40;18.40;;;;;;5033010;28;20456;-76
2022/08/23 13:21:30;;;;;;;4.07;2.50;;;30.10;18.70;;;;;;5033560;28;20495;-75
2022/08/23 13:24:35;;;;;;;6.03;2.77;;;29.90;19.80;;;;;;5029303;28;20475;-76
2022/08/23 13:27:25;;;;;;;6.70;3.20;;;29.70;20.20;;;;;;5031553;28;20949;-76
2022/08/23 13:30:21;;;;;;;6.33;2.90;;;29.60;20.00;;;;;;5030975;28;20522;-75
2022/08/23 13:33:18;;;;;;;13.10;3.03;;;29.40;20.50;;;;;;5021018;28;20457;-75
2022/08/23 13:36:12;;;;;;;3.73;2.67;;;29.20;21.70;;;;;;5037257;28;20419;-75
2022/08/23 13:39:05;;;;;;;4.30;2.80;;;29.30;22.40;;;;;;5042590;28;20513;-76
2022/08/23 13:41:50;;;;;;;5.10;2.60;;;29.70;20.50;;;;;;5032774;28;20433;-75
2022/08/23 13:44:38;;;;;;;4.73;2.80;;;30.10;19.60;;;;;;5035049;28;20479;-76
2022/08/23 13:47:25;;;;;;;7.90;2.80;;;30.60;19.50;;;;;;5048055;28;20471;-76
2022/08/23 13:50:16;;;;;;;4.80;2.90;;;31.10;18.80;;;;;;5047254;28;21067;-76
2022/08/23 13:53:02;;;;;;;5.20;2.50;;;31.40;17.20;;;;;;5027048;28;20928;-75
2022/08/23 13:55:51;;;;;;;5.83;2.80;;;31.40;17.10;;;;;;5037294;28;20424;-75
2022/08/23 13:58:36;;;;;;;4.60;2.83;;;31.40;16.50;;;;;;5049774;28;20423;-75
2022/08/23 14:01:24;;;;;;;4.83;3.17;;;31.10;17.70;;;;;;5029191;28;20914;-76
2022/08/23 14:04:10;;;;;;;4.50;2.40;;;30.90;17.60;;;;;;5028713;28;20468;-76
2022/08/23 14:06:56;;;;;;;13.77;2.80;;;30.80;17.40;;;;;;5038767;28;20519;-76
2022/08/23 14:09:42;;;;;;;9.40;2.53;;;31.10;17.40;;;;;;5030330;28;20424;-76
2022/08/23 14:12:30;;;;;;;4.93;2.73;;;31.50;16.10;;;;;;5024516;28;20599;-76
2022/08/23 14:15:17;;;;;;;5.73;2.57;;;32.00;15.80;;;;;;5040710;28;20424;-75
2022/08/23 14:18:04;;;;;;;4.23;2.30;;;32.30;15.30;;;;;;5047476;28;20440;-74
2022/08/23 14:20:49;;;;;;;5.20;3.20;;;32.50;14.60;;;;;;5046959;28;20860;-74
2022/08/23 14:23:35;;;;;;;14.27;3.67;;;32.40;14.90;;;;;;5033398;28;20539;-74
2022/08/23 14:26:22;;;;;;;6.53;2.60;;;32.40;14.50;;;;;;5039487;28;20431;-74
2022/08/23 14:29:07;;;;;;;4.20;2.60;;;32.30;14.60;;;;;;5046116;28;20767;-74
2022/08/23 14:31:54;;;;;;;6.13;3.33;;;32.20;14.30;;;;;;5025914;28;20469;-73
2022/08/23 14:34:40;;;;;;;5.53;2.70;;;31.90;15.50;;;;;;5035027;28;20415;-74
2022/08/23 14:37:26;;;;;;;8.30;2.80;;;31.60;15.90;;;;;;5031137;28;20427;-73
2022/08/23 14:40:13;;;;;;;4.40;2.87;;;31.40;16.20;;;;;;5028776;28;20436;-74
2022/08/23 14:42:58;;;;;;;5.30;2.60;;;31.50;15.80;;;;;;5023504;28;20968;-74
2022/08/23 14:45:44;;;;;;;7.13;2.57;;;31.60;15.30;;;;;;5033814;28;20436;-74
2022/08/23 14:48:30;;;;;;;5.53;2.20;;;31.80;15.70;;;;;;5040724;28;20448;-74
2022/08/23 14:51:25;;;;;;;6.43;3.10;;;32.10;15.70;;;;;;5029934;28;21012;-74